Hovedside
METAR-TAF:

METAR-TAF

Lufthavner :

Beijing internasjonale lufthavn

Beijing, Kina

breddegrad: 39-56N, lengdegrad: 116-17E, høyde over havet: 55 m

Gjeldene værobservasjon

Denne rapporten ble laget for 15 minutter siden, klokken 04:00 UTC
Vind 4 kt fra Øst-sørøst, skiftende mellom Øst-nordøst og Sør
Temperatur 19°C
Luftfuktighet 28%
Trykk 1017 hPa
Sikt 10 km eller mer
ingen skyer under 1500 m og ingen bygeskyer

METAR: ZBAA 240400Z 12002MPS 070V190 CAVOK 19/M00 Q1017 NOSIG

Tid: 12:15 (04:15 UTC)

Varsel

Denne rapporten ble laget for 6 timer og 55 minutter siden, klokken 21:20 UTC
Varsel gyldig fra 24. klokken 00 UTC til 24. klokken 24 UTC
Vind 8 kt fra Sør
Sikt: 5000 m
dis

TAF: ZBAA 232120Z 2400/2424 18004MPS 5000 BR NSC TX21/2407Z TN03/2421Z

Værobservasjoner og værvarsel for over 4000 flyplasser (METAR- og TAF-rapporter).

Tilgjengelige stasjoner er representert av de røde og gule prikkene på kartet.

Hold musepekeren over prikken for å se navnet på stasjonen.

Klikk så for å se værobservasjoner og -varsler.

For å forandre kartet kan du klikke på den grønne knappen med svart kryss for å zoome inn, på den grønne knappen med strek for å zoome ut, eller på de grønne pilene for å se tilstøtende kart.


METAR-TAF: